sensor_id;sensor_type;location;lat;lon;timestamp;P1;durP1;ratioP1;P2;durP2;ratioP2
71821;SDS011;64096;52.548;13.406;2022-12-07T06:03:24;18.27;;;11.90;;
71821;SDS011;64096;52.548;13.406;2022-12-07T06:05:51;16.30;;;10.77;;
71821;SDS011;64096;52.548;13.406;2022-12-07T06:08:18;17.05;;;10.75;;
71821;SDS011;64096;52.548;13.406;2022-12-07T06:10:44;15.40;;;9.85;;
71821;SDS011;64096;52.548;13.406;2022-12-07T06:13:10;15.95;;;10.10;;
71821;SDS011;64096;52.548;13.406;2022-12-07T06:15:36;15.10;;;10.20;;
71821;SDS011;64096;52.548;13.406;2022-12-07T06:18:03;15.60;;;10.32;;
71821;SDS011;64096;52.548;13.406;2022-12-07T06:20:29;15.52;;;10.20;;
71821;SDS011;64096;52.548;13.406;2022-12-07T06:22:55;16.58;;;10.52;;
71821;SDS011;64096;52.548;13.406;2022-12-07T06:25:21;17.33;;;10.52;;
71821;SDS011;64096;52.548;13.406;2022-12-07T06:27:47;16.55;;;10.30;;
71821;SDS011;64096;52.548;13.406;2022-12-07T06:30:13;15.73;;;10.10;;
71821;SDS011;64096;52.548;13.406;2022-12-07T06:32:39;16.58;;;10.10;;
71821;SDS011;64096;52.548;13.406;2022-12-07T06:35:05;14.60;;;9.50;;
71821;SDS011;64096;52.548;13.406;2022-12-07T06:37:32;13.10;;;8.38;;
71821;SDS011;64096;52.548;13.406;2022-12-07T06:39:58;13.85;;;9.10;;
71821;SDS011;64096;52.548;13.406;2022-12-07T06:42:24;14.88;;;9.27;;
71821;SDS011;64096;52.548;13.406;2022-12-07T06:44:50;13.77;;;9.40;;
71821;SDS011;64096;52.548;13.406;2022-12-07T06:47:16;14.93;;;9.55;;
71821;SDS011;64096;52.548;13.406;2022-12-07T06:49:42;15.63;;;9.98;;
71821;SDS011;64096;52.548;13.406;2022-12-07T06:52:08;15.90;;;10.23;;
71821;SDS011;64096;52.548;13.406;2022-12-07T06:54:34;16.20;;;10.00;;
71821;SDS011;64096;52.548;13.406;2022-12-07T06:57:00;15.35;;;9.70;;
71821;SDS011;64096;52.548;13.406;2022-12-07T06:59:26;13.98;;;9.00;;
71821;SDS011;64096;52.548;13.406;2022-12-07T07:01:52;16.15;;;10.38;;
71821;SDS011;64096;52.548;13.406;2022-12-07T07:04:18;15.02;;;9.98;;
71821;SDS011;64096;52.548;13.406;2022-12-07T07:06:44;18.48;;;11.13;;
71821;SDS011;64096;52.548;13.406;2022-12-07T07:09:11;16.92;;;10.82;;
71821;SDS011;64096;52.548;13.406;2022-12-07T07:11:37;14.60;;;9.55;;
71821;SDS011;64096;52.548;13.406;2022-12-07T07:14:03;16.10;;;10.05;;
71821;SDS011;64096;52.548;13.406;2022-12-07T07:16:29;16.70;;;11.93;;
71821;SDS011;64096;52.548;13.406;2022-12-07T07:18:56;20.70;;;13.45;;
71821;SDS011;64096;52.548;13.406;2022-12-07T07:21:22;18.95;;;11.32;;
71821;SDS011;64096;52.548;13.406;2022-12-07T07:23:48;16.77;;;10.55;;
71821;SDS011;64096;52.548;13.406;2022-12-07T07:26:15;16.45;;;11.15;;
71821;SDS011;64096;52.548;13.406;2022-12-07T07:28:41;14.95;;;9.93;;
71821;SDS011;64096;52.548;13.406;2022-12-07T07:31:07;16.80;;;10.88;;
71821;SDS011;64096;52.548;13.406;2022-12-07T07:33:34;16.70;;;10.57;;
71821;SDS011;64096;52.548;13.406;2022-12-07T07:36:03;14.10;;;9.57;;
71821;SDS011;64096;52.548;13.406;2022-12-07T07:38:29;15.63;;;10.30;;
71821;SDS011;64096;52.548;13.406;2022-12-07T07:40:56;16.13;;;9.45;;
71821;SDS011;64096;52.548;13.406;2022-12-07T07:43:22;13.32;;;8.20;;
71821;SDS011;64096;52.548;13.406;2022-12-07T07:45:48;12.95;;;8.45;;
71821;SDS011;64096;52.548;13.406;2022-12-07T07:48:14;17.90;;;10.32;;
71821;SDS011;64096;52.548;13.406;2022-12-07T07:50:40;12.20;;;7.80;;
71821;SDS011;64096;52.548;13.406;2022-12-07T07:53:06;15.32;;;9.00;;
71821;SDS011;64096;52.548;13.406;2022-12-07T07:55:33;15.00;;;7.43;;
71821;SDS011;64096;52.548;13.406;2022-12-07T07:58:00;13.30;;;7.97;;
71821;SDS011;64096;52.548;13.406;2022-12-07T08:00:26;14.23;;;10.23;;
71821;SDS011;64096;52.548;13.406;2022-12-07T08:02:52;13.85;;;8.73;;
71821;SDS011;64096;52.548;13.406;2022-12-07T08:05:18;11.98;;;7.13;;
71821;SDS011;64096;52.548;13.406;2022-12-07T08:07:45;10.35;;;6.82;;
71821;SDS011;64096;52.548;13.406;2022-12-07T08:10:11;10.82;;;7.13;;
71821;SDS011;64096;52.548;13.406;2022-12-07T08:12:38;9.02;;;5.70;;
71821;SDS011;64096;52.548;13.406;2022-12-07T08:15:25;8.35;;;6.07;;
71821;SDS011;64096;52.548;13.406;2022-12-07T08:17:51;10.18;;;6.03;;
71821;SDS011;64096;52.548;13.406;2022-12-07T08:20:18;10.23;;;5.28;;
71821;SDS011;64096;52.548;13.406;2022-12-07T08:22:44;9.75;;;5.85;;
71821;SDS011;64096;52.548;13.406;2022-12-07T08:25:10;7.60;;;5.03;;
71821;SDS011;64096;52.548;13.406;2022-12-07T08:27:36;7.22;;;4.45;;
71821;SDS011;64096;52.548;13.406;2022-12-07T08:30:03;8.20;;;4.40;;
71821;SDS011;64096;52.548;13.406;2022-12-07T08:32:29;6.03;;;4.25;;
71821;SDS011;64096;52.548;13.406;2022-12-07T08:34:56;9.00;;;4.30;;
71821;SDS011;64096;52.548;13.406;2022-12-07T08:37:22;5.40;;;3.53;;
71821;SDS011;64096;52.548;13.406;2022-12-07T08:39:48;5.60;;;3.42;;
71821;SDS011;64096;52.548;13.406;2022-12-07T08:42:14;5.45;;;3.55;;
71821;SDS011;64096;52.548;13.406;2022-12-07T08:44:40;10.18;;;6.78;;
71821;SDS011;64096;52.548;13.406;2022-12-07T08:47:06;8.23;;;4.90;;
71821;SDS011;64096;52.548;13.406;2022-12-07T08:49:34;6.22;;;3.55;;
71821;SDS011;64096;52.548;13.406;2022-12-07T08:52:02;6.72;;;4.00;;
71821;SDS011;64096;52.548;13.406;2022-12-07T08:54:29;7.78;;;4.18;;
71821;SDS011;64096;52.548;13.406;2022-12-07T08:56:56;5.25;;;3.20;;
71821;SDS011;64096;52.548;13.406;2022-12-07T08:59:22;5.22;;;2.60;;
71821;SDS011;64096;52.548;13.406;2022-12-07T09:01:48;3.88;;;2.55;;
71821;SDS011;64096;52.548;13.406;2022-12-07T09:04:18;4.35;;;2.40;;
71821;SDS011;64096;52.548;13.406;2022-12-07T09:06:45;3.95;;;2.28;;
71821;SDS011;64096;52.548;13.406;2022-12-07T09:09:11;4.65;;;2.22;;
71821;SDS011;64096;52.548;13.406;2022-12-07T09:11:38;3.95;;;2.50;;
71821;SDS011;64096;52.548;13.406;2022-12-07T09:14:05;3.58;;;2.25;;
71821;SDS011;64096;52.548;13.406;2022-12-07T09:16:31;5.43;;;2.35;;
71821;SDS011;64096;52.548;13.406;2022-12-07T09:18:57;4.72;;;2.25;;
71821;SDS011;64096;52.548;13.406;2022-12-07T09:21:23;2.70;;;1.70;;
71821;SDS011;64096;52.548;13.406;2022-12-07T09:23:50;2.92;;;1.50;;
71821;SDS011;64096;52.548;13.406;2022-12-07T09:26:16;3.47;;;1.70;;
71821;SDS011;64096;52.548;13.406;2022-12-07T09:28:42;2.50;;;1.40;;
71821;SDS011;64096;52.548;13.406;2022-12-07T09:31:08;1.85;;;1.33;;
71821;SDS011;64096;52.548;13.406;2022-12-07T09:33:34;3.03;;;1.58;;
71821;SDS011;64096;52.548;13.406;2022-12-07T09:36:00;3.65;;;1.52;;
71821;SDS011;64096;52.548;13.406;2022-12-07T09:38:27;3.50;;;1.77;;
71821;SDS011;64096;52.548;13.406;2022-12-07T09:40:55;4.65;;;1.90;;
71821;SDS011;64096;52.548;13.406;2022-12-07T09:43:24;3.42;;;1.70;;
71821;SDS011;64096;52.548;13.406;2022-12-07T09:45:52;2.60;;;1.50;;
71821;SDS011;64096;52.548;13.406;2022-12-07T09:48:30;3.15;;;1.65;;
71821;SDS011;64096;52.548;13.406;2022-12-07T09:50:57;2.92;;;1.50;;
71821;SDS011;64096;52.548;13.406;2022-12-07T09:53:27;2.85;;;1.52;;
71821;SDS011;64096;52.548;13.406;2022-12-07T09:55:54;3.00;;;1.70;;
71821;SDS011;64096;52.548;13.406;2022-12-07T09:58:22;3.75;;;1.73;;
71821;SDS011;64096;52.548;13.406;2022-12-07T10:00:50;3.20;;;1.60;;
71821;SDS011;64096;52.548;13.406;2022-12-07T10:03:16;3.58;;;1.70;;
71821;SDS011;64096;52.548;13.406;2022-12-07T10:05:43;3.90;;;1.98;;
71821;SDS011;64096;52.548;13.406;2022-12-07T10:08:11;3.80;;;1.80;;
71821;SDS011;64096;52.548;13.406;2022-12-07T10:10:37;3.70;;;1.70;;
71821;SDS011;64096;52.548;13.406;2022-12-07T10:13:12;4.20;;;1.52;;
71821;SDS011;64096;52.548;13.406;2022-12-07T10:18:16;4.18;;;1.42;;
71821;SDS011;64096;52.548;13.406;2022-12-07T10:20:44;4.70;;;2.05;;
71821;SDS011;64096;52.548;13.406;2022-12-07T10:23:15;5.18;;;2.13;;
71821;SDS011;64096;52.548;13.406;2022-12-07T10:25:41;4.10;;;1.90;;
71821;SDS011;64096;52.548;13.406;2022-12-07T10:30:51;4.15;;;2.22;;
71821;SDS011;64096;52.548;13.406;2022-12-07T10:33:30;2.92;;;1.48;;
71821;SDS011;64096;52.548;13.406;2022-12-07T10:35:57;2.45;;;1.30;;
71821;SDS011;64096;52.548;13.406;2022-12-07T10:38:27;3.20;;;1.40;;
71821;SDS011;64096;52.548;13.406;2022-12-07T10:41:04;2.55;;;1.17;;
71821;SDS011;64096;52.548;13.406;2022-12-07T10:43:30;3.90;;;1.80;;
71821;SDS011;64096;52.548;13.406;2022-12-07T11:04:50;3.65;;;2.00;;
71821;SDS011;64096;52.548;13.406;2022-12-07T11:10:13;3.50;;;1.90;;
71821;SDS011;64096;52.548;13.406;2022-12-07T11:16:01;3.55;;;1.80;;
71821;SDS011;64096;52.548;13.406;2022-12-07T11:18:14;6.22;;;3.78;;
71821;SDS011;64096;52.548;13.406;2022-12-07T11:20:56;6.63;;;4.07;;
71821;SDS011;64096;52.548;13.406;2022-12-07T11:28:44;7.13;;;3.88;;
71821;SDS011;64096;52.548;13.406;2022-12-07T11:33:43;3.50;;;1.88;;
71821;SDS011;64096;52.548;13.406;2022-12-07T11:39:06;4.75;;;2.20;;
71821;SDS011;64096;52.548;13.406;2022-12-07T11:41:37;4.70;;;2.30;;
71821;SDS011;64096;52.548;13.406;2022-12-07T11:44:06;4.47;;;2.22;;
71821;SDS011;64096;52.548;13.406;2022-12-07T11:46:53;3.67;;;2.10;;
71821;SDS011;64096;52.548;13.406;2022-12-07T11:50:03;3.50;;;1.98;;
71821;SDS011;64096;52.548;13.406;2022-12-07T11:52:43;4.65;;;2.75;;
71821;SDS011;64096;52.548;13.406;2022-12-07T11:55:02;4.85;;;2.65;;
71821;SDS011;64096;52.548;13.406;2022-12-07T11:57:34;3.95;;;2.22;;
71821;SDS011;64096;52.548;13.406;2022-12-07T12:00:03;5.13;;;2.42;;
71821;SDS011;64096;52.548;13.406;2022-12-07T12:02:42;3.85;;;2.08;;
71821;SDS011;64096;52.548;13.406;2022-12-07T12:05:21;5.32;;;2.30;;
71821;SDS011;64096;52.548;13.406;2022-12-07T12:07:52;4.75;;;2.45;;
71821;SDS011;64096;52.548;13.406;2022-12-07T12:10:29;11.15;;;7.25;;
71821;SDS011;64096;52.548;13.406;2022-12-07T12:13:02;10.93;;;6.85;;
71821;SDS011;64096;52.548;13.406;2022-12-07T12:18:22;5.80;;;2.63;;
71821;SDS011;64096;52.548;13.406;2022-12-07T12:20:54;4.22;;;2.08;;
71821;SDS011;64096;52.548;13.406;2022-12-07T12:26:01;4.60;;;2.40;;
71821;SDS011;64096;52.548;13.406;2022-12-07T12:33:43;4.80;;;2.60;;
71821;SDS011;64096;52.548;13.406;2022-12-07T12:36:23;5.50;;;1.98;;
71821;SDS011;64096;52.548;13.406;2022-12-07T12:51:43;5.28;;;1.92;;
71821;SDS011;64096;52.548;13.406;2022-12-07T12:54:19;5.25;;;1.73;;
71821;SDS011;64096;52.548;13.406;2022-12-07T12:56:51;4.22;;;1.50;;
71821;SDS011;64096;52.548;13.406;2022-12-07T12:59:26;5.47;;;2.10;;
71821;SDS011;64096;52.548;13.406;2022-12-07T13:10:01;3.40;;;1.77;;
71821;SDS011;64096;52.548;13.406;2022-12-07T13:12:27;3.05;;;1.45;;
71821;SDS011;64096;52.548;13.406;2022-12-07T13:14:55;4.40;;;1.98;;
71821;SDS011;64096;52.548;13.406;2022-12-07T13:19:58;4.25;;;1.50;;
71821;SDS011;64096;52.548;13.406;2022-12-07T13:24:57;4.45;;;1.80;;
71821;SDS011;64096;52.548;13.406;2022-12-07T13:27:24;5.30;;;1.65;;
71821;SDS011;64096;52.548;13.406;2022-12-07T13:29:51;3.78;;;1.88;;
71821;SDS011;64096;52.548;13.406;2022-12-07T13:32:23;4.78;;;1.83;;
71821;SDS011;64096;52.548;13.406;2022-12-07T13:34:50;4.88;;;1.92;;
71821;SDS011;64096;52.548;13.406;2022-12-07T13:37:29;6.10;;;1.80;;
71821;SDS011;64096;52.548;13.406;2022-12-07T13:39:57;5.28;;;1.48;;
71821;SDS011;64096;52.548;13.406;2022-12-07T13:42:30;4.13;;;1.60;;
71821;SDS011;64096;52.548;13.406;2022-12-07T13:44:58;5.80;;;2.10;;
71821;SDS011;64096;52.548;13.406;2022-12-07T13:47:34;4.32;;;1.65;;
71821;SDS011;64096;52.548;13.406;2022-12-07T13:50:15;4.13;;;2.00;;
71821;SDS011;64096;52.548;13.406;2022-12-07T13:52:47;3.88;;;1.60;;
71821;SDS011;64096;52.548;13.406;2022-12-07T13:55:15;5.70;;;2.03;;
71821;SDS011;64096;52.548;13.406;2022-12-07T13:57:45;5.18;;;1.95;;
71821;SDS011;64096;52.548;13.406;2022-12-07T14:15:50;4.00;;;1.65;;
71821;SDS011;64096;52.548;13.406;2022-12-07T14:18:26;3.95;;;1.60;;
71821;SDS011;64096;52.548;13.406;2022-12-07T14:21:03;4.30;;;1.65;;
71821;SDS011;64096;52.548;13.406;2022-12-07T14:23:29;4.13;;;1.48;;
71821;SDS011;64096;52.548;13.406;2022-12-07T14:26:06;3.67;;;1.73;;
71821;SDS011;64096;52.548;13.406;2022-12-07T14:28:34;4.10;;;1.58;;
71821;SDS011;64096;52.548;13.406;2022-12-07T14:31:01;4.05;;;1.95;;
71821;SDS011;64096;52.548;13.406;2022-12-07T14:33:27;4.32;;;1.52;;
71821;SDS011;64096;52.548;13.406;2022-12-07T14:35:54;4.55;;;1.40;;
71821;SDS011;64096;52.548;13.406;2022-12-07T14:38:22;3.58;;;1.60;;
71821;SDS011;64096;52.548;13.406;2022-12-07T14:40:49;4.03;;;1.30;;
71821;SDS011;64096;52.548;13.406;2022-12-07T14:43:16;4.35;;;1.83;;
71821;SDS011;64096;52.548;13.406;2022-12-07T14:45:42;4.70;;;1.80;;
71821;SDS011;64096;52.548;13.406;2022-12-07T14:48:14;3.38;;;1.60;;
71821;SDS011;64096;52.548;13.406;2022-12-07T14:50:42;5.45;;;1.70;;
71821;SDS011;64096;52.548;13.406;2022-12-07T14:53:14;5.05;;;1.80;;
71821;SDS011;64096;52.548;13.406;2022-12-07T14:55:40;4.07;;;1.60;;
71821;SDS011;64096;52.548;13.406;2022-12-07T14:58:07;4.85;;;1.98;;
71821;SDS011;64096;52.548;13.406;2022-12-07T15:00:37;5.18;;;1.85;;
71821;SDS011;64096;52.548;13.406;2022-12-07T15:03:03;6.60;;;2.65;;
71821;SDS011;64096;52.548;13.406;2022-12-07T15:05:30;3.90;;;1.40;;
71821;SDS011;64096;52.548;13.406;2022-12-07T15:07:56;4.40;;;1.52;;
71821;SDS011;64096;52.548;13.406;2022-12-07T15:10:24;4.82;;;1.75;;
71821;SDS011;64096;52.548;13.406;2022-12-07T15:12:54;5.22;;;1.85;;
71821;SDS011;64096;52.548;13.406;2022-12-07T15:15:40;5.05;;;1.85;;
71821;SDS011;64096;52.548;13.406;2022-12-07T15:18:06;4.38;;;1.70;;
71821;SDS011;64096;52.548;13.406;2022-12-07T15:20:32;6.30;;;2.63;;
71821;SDS011;64096;52.548;13.406;2022-12-07T15:22:59;6.60;;;1.90;;
71821;SDS011;64096;52.548;13.406;2022-12-07T15:25:25;6.35;;;1.92;;
71821;SDS011;64096;52.548;13.406;2022-12-07T15:27:51;3.63;;;1.30;;
71821;SDS011;64096;52.548;13.406;2022-12-07T15:30:17;4.38;;;1.63;;
71821;SDS011;64096;52.548;13.406;2022-12-07T15:32:43;4.35;;;1.40;;
71821;SDS011;64096;52.548;13.406;2022-12-07T15:35:09;5.43;;;2.05;;
71821;SDS011;64096;52.548;13.406;2022-12-07T15:37:35;4.25;;;1.50;;
71821;SDS011;64096;52.548;13.406;2022-12-07T15:40:01;4.95;;;1.65;;
71821;SDS011;64096;52.548;13.406;2022-12-07T15:42:28;5.07;;;1.80;;
71821;SDS011;64096;52.548;13.406;2022-12-07T15:44:54;5.22;;;1.70;;
71821;SDS011;64096;52.548;13.406;2022-12-07T15:47:30;4.22;;;1.67;;
71821;SDS011;64096;52.548;13.406;2022-12-07T15:49:56;3.03;;;1.25;;
71821;SDS011;64096;52.548;13.406;2022-12-07T15:52:22;5.05;;;1.70;;
71821;SDS011;64096;52.548;13.406;2022-12-07T15:54:48;4.85;;;1.80;;
71821;SDS011;64096;52.548;13.406;2022-12-07T15:57:14;5.60;;;1.45;;
71821;SDS011;64096;52.548;13.406;2022-12-07T15:59:40;5.05;;;1.55;;
71821;SDS011;64096;52.548;13.406;2022-12-07T16:02:07;5.55;;;1.60;;
71821;SDS011;64096;52.548;13.406;2022-12-07T16:04:35;5.57;;;2.20;;
71821;SDS011;64096;52.548;13.406;2022-12-07T16:07:01;4.38;;;1.60;;
71821;SDS011;64096;52.548;13.406;2022-12-07T16:09:27;5.53;;;1.80;;
71821;SDS011;64096;52.548;13.406;2022-12-07T16:11:53;4.68;;;1.88;;
71821;SDS011;64096;52.548;13.406;2022-12-07T16:14:19;6.45;;;2.00;;
71821;SDS011;64096;52.548;13.406;2022-12-07T16:16:46;5.32;;;1.60;;
71821;SDS011;64096;52.548;13.406;2022-12-07T16:19:12;5.63;;;1.88;;
71821;SDS011;64096;52.548;13.406;2022-12-07T16:21:38;4.50;;;1.65;;
71821;SDS011;64096;52.548;13.406;2022-12-07T16:24:05;5.68;;;1.77;;
71821;SDS011;64096;52.548;13.406;2022-12-07T16:26:31;6.72;;;1.80;;
71821;SDS011;64096;52.548;13.406;2022-12-07T16:28:57;5.97;;;1.50;;
71821;SDS011;64096;52.548;13.406;2022-12-07T16:31:25;4.43;;;1.30;;
71821;SDS011;64096;52.548;13.406;2022-12-07T16:33:52;7.75;;;2.08;;
71821;SDS011;64096;52.548;13.406;2022-12-07T16:36:19;5.63;;;2.00;;
71821;SDS011;64096;52.548;13.406;2022-12-07T16:38:47;5.40;;;1.85;;
71821;SDS011;64096;52.548;13.406;2022-12-07T16:41:13;5.43;;;1.80;;
71821;SDS011;64096;52.548;13.406;2022-12-07T16:43:39;4.43;;;1.58;;
71821;SDS011;64096;52.548;13.406;2022-12-07T16:46:06;4.03;;;1.60;;
71821;SDS011;64096;52.548;13.406;2022-12-07T16:48:34;4.32;;;1.50;;
71821;SDS011;64096;52.548;13.406;2022-12-07T16:51:02;3.90;;;1.50;;
71821;SDS011;64096;52.548;13.406;2022-12-07T16:53:29;4.82;;;1.85;;
71821;SDS011;64096;52.548;13.406;2022-12-07T16:55:55;3.83;;;1.83;;
71821;SDS011;64096;52.548;13.406;2022-12-07T16:58:23;6.07;;;1.75;;
71821;SDS011;64096;52.548;13.406;2022-12-07T17:03:23;6.28;;;2.45;;
71821;SDS011;64096;52.548;13.406;2022-12-07T17:05:49;6.30;;;2.42;;
71821;SDS011;64096;52.548;13.406;2022-12-07T17:08:15;5.13;;;1.70;;
71821;SDS011;64096;52.548;13.406;2022-12-07T17:10:42;5.28;;;1.60;;
71821;SDS011;64096;52.548;13.406;2022-12-07T17:13:08;4.47;;;1.50;;
71821;SDS011;64096;52.548;13.406;2022-12-07T17:15:59;4.70;;;1.90;;
71821;SDS011;64096;52.548;13.406;2022-12-07T17:18:34;4.28;;;1.50;;
71821;SDS011;64096;52.548;13.406;2022-12-07T17:21:05;5.97;;;1.63;;
71821;SDS011;64096;52.548;13.406;2022-12-07T17:23:31;5.35;;;2.00;;
71821;SDS011;64096;52.548;13.406;2022-12-07T17:26:11;4.40;;;1.60;;
71821;SDS011;64096;52.548;13.406;2022-12-07T17:28:37;6.15;;;1.95;;
71821;SDS011;64096;52.548;13.406;2022-12-07T17:31:04;4.60;;;2.10;;
71821;SDS011;64096;52.548;13.406;2022-12-07T17:33:31;4.40;;;1.70;;
71821;SDS011;64096;52.548;13.406;2022-12-07T17:35:57;5.57;;;1.88;;
71821;SDS011;64096;52.548;13.406;2022-12-07T17:38:23;5.68;;;2.17;;
71821;SDS011;64096;52.548;13.406;2022-12-07T17:40:49;5.93;;;2.13;;
71821;SDS011;64096;52.548;13.406;2022-12-07T17:43:16;5.07;;;1.70;;
71821;SDS011;64096;52.548;13.406;2022-12-07T17:45:42;4.13;;;1.55;;
71821;SDS011;64096;52.548;13.406;2022-12-07T17:48:08;5.25;;;2.10;;
71821;SDS011;64096;52.548;13.406;2022-12-07T17:50:34;5.25;;;1.75;;
71821;SDS011;64096;52.548;13.406;2022-12-07T17:53:19;4.40;;;1.35;;
71821;SDS011;64096;52.548;13.406;2022-12-07T17:55:45;5.10;;;1.85;;
71821;SDS011;64096;52.548;13.406;2022-12-07T17:58:11;4.00;;;1.77;;
71821;SDS011;64096;52.548;13.406;2022-12-07T18:00:37;4.70;;;1.90;;
71821;SDS011;64096;52.548;13.406;2022-12-07T18:03:04;5.78;;;1.67;;
71821;SDS011;64096;52.548;13.406;2022-12-07T18:05:32;5.35;;;1.90;;
71821;SDS011;64096;52.548;13.406;2022-12-07T18:07:58;5.38;;;1.88;;
71821;SDS011;64096;52.548;13.406;2022-12-07T18:10:24;5.85;;;2.05;;
71821;SDS011;64096;52.548;13.406;2022-12-07T18:12:50;5.10;;;2.25;;
71821;SDS011;64096;52.548;13.406;2022-12-07T18:15:36;4.57;;;2.00;;
71821;SDS011;64096;52.548;13.406;2022-12-07T18:18:02;6.53;;;2.40;;
71821;SDS011;64096;52.548;13.406;2022-12-07T18:20:29;4.72;;;1.98;;
71821;SDS011;64096;52.548;13.406;2022-12-07T18:22:55;6.38;;;2.25;;
71821;SDS011;64096;52.548;13.406;2022-12-07T18:25:21;6.25;;;2.90;;
71821;SDS011;64096;52.548;13.406;2022-12-07T18:27:47;5.05;;;2.10;;
71821;SDS011;64096;52.548;13.406;2022-12-07T18:30:16;6.30;;;3.13;;
71821;SDS011;64096;52.548;13.406;2022-12-07T18:32:42;6.00;;;2.60;;
71821;SDS011;64096;52.548;13.406;2022-12-07T18:35:08;6.28;;;2.67;;
71821;SDS011;64096;52.548;13.406;2022-12-07T18:37:34;6.30;;;2.47;;
71821;SDS011;64096;52.548;13.406;2022-12-07T18:40:00;6.90;;;2.97;;
71821;SDS011;64096;52.548;13.406;2022-12-07T18:42:26;5.00;;;2.60;;
71821;SDS011;64096;52.548;13.406;2022-12-07T18:44:52;4.78;;;2.35;;
71821;SDS011;64096;52.548;13.406;2022-12-07T18:47:18;6.32;;;2.65;;
71821;SDS011;64096;52.548;13.406;2022-12-07T18:49:44;6.72;;;2.78;;
71821;SDS011;64096;52.548;13.406;2022-12-07T18:52:10;4.68;;;2.25;;
71821;SDS011;64096;52.548;13.406;2022-12-07T18:54:36;5.82;;;2.65;;
71821;SDS011;64096;52.548;13.406;2022-12-07T18:57:02;5.38;;;2.60;;
71821;SDS011;64096;52.548;13.406;2022-12-07T18:59:29;5.05;;;2.20;;
71821;SDS011;64096;52.548;13.406;2022-12-07T19:02:10;7.45;;;2.67;;
71821;SDS011;64096;52.548;13.406;2022-12-07T19:04:36;5.53;;;2.30;;
71821;SDS011;64096;52.548;13.406;2022-12-07T19:07:02;6.60;;;2.80;;
71821;SDS011;64096;52.548;13.406;2022-12-07T19:09:28;7.00;;;2.63;;
71821;SDS011;64096;52.548;13.406;2022-12-07T19:11:54;5.47;;;2.40;;
71821;SDS011;64096;52.548;13.406;2022-12-07T19:14:26;7.75;;;2.55;;
71821;SDS011;64096;52.548;13.406;2022-12-07T19:16:54;5.43;;;2.45;;
71821;SDS011;64096;52.548;13.406;2022-12-07T19:19:21;6.30;;;2.40;;
71821;SDS011;64096;52.548;13.406;2022-12-07T19:21:48;4.95;;;2.38;;
71821;SDS011;64096;52.548;13.406;2022-12-07T19:24:14;5.68;;;2.90;;
71821;SDS011;64096;52.548;13.406;2022-12-07T19:26:41;8.00;;;2.90;;
71821;SDS011;64096;52.548;13.406;2022-12-07T19:29:07;8.55;;;2.88;;
71821;SDS011;64096;52.548;13.406;2022-12-07T19:31:33;5.10;;;2.58;;
71821;SDS011;64096;52.548;13.406;2022-12-07T19:33:59;6.25;;;2.67;;
71821;SDS011;64096;52.548;13.406;2022-12-07T19:36:25;6.35;;;3.08;;
71821;SDS011;64096;52.548;13.406;2022-12-07T19:38:52;5.88;;;2.95;;
71821;SDS011;64096;52.548;13.406;2022-12-07T19:41:18;8.13;;;3.20;;
71821;SDS011;64096;52.548;13.406;2022-12-07T19:44:09;5.70;;;2.65;;
71821;SDS011;64096;52.548;13.406;2022-12-07T19:46:36;6.70;;;2.95;;
71821;SDS011;64096;52.548;13.406;2022-12-07T19:49:02;5.50;;;2.65;;
71821;SDS011;64096;52.548;13.406;2022-12-07T19:51:29;7.95;;;3.22;;
71821;SDS011;64096;52.548;13.406;2022-12-07T19:53:56;6.00;;;3.17;;
71821;SDS011;64096;52.548;13.406;2022-12-07T19:56:22;5.60;;;3.05;;
71821;SDS011;64096;52.548;13.406;2022-12-07T19:58:48;10.10;;;3.08;;
71821;SDS011;64096;52.548;13.406;2022-12-07T20:01:15;5.57;;;2.90;;
71821;SDS011;64096;52.548;13.406;2022-12-07T20:03:41;6.72;;;2.45;;
71821;SDS011;64096;52.548;13.406;2022-12-07T20:06:15;5.50;;;2.80;;
71821;SDS011;64096;52.548;13.406;2022-12-07T20:08:42;6.53;;;2.60;;
71821;SDS011;64096;52.548;13.406;2022-12-07T20:11:08;4.63;;;2.83;;
71821;SDS011;64096;52.548;13.406;2022-12-07T20:13:53;6.70;;;2.72;;
71821;SDS011;64096;52.548;13.406;2022-12-07T20:16:19;5.07;;;2.60;;
71821;SDS011;64096;52.548;13.406;2022-12-07T20:18:45;4.80;;;2.38;;
71821;SDS011;64096;52.548;13.406;2022-12-07T20:21:12;6.05;;;2.78;;
71821;SDS011;64096;52.548;13.406;2022-12-07T20:23:38;4.65;;;2.35;;
71821;SDS011;64096;52.548;13.406;2022-12-07T20:26:05;7.05;;;2.72;;
71821;SDS011;64096;52.548;13.406;2022-12-07T20:28:33;5.10;;;2.60;;
71821;SDS011;64096;52.548;13.406;2022-12-07T20:31:02;6.07;;;3.10;;
71821;SDS011;64096;52.548;13.406;2022-12-07T20:33:28;6.20;;;2.95;;
71821;SDS011;64096;52.548;13.406;2022-12-07T20:35:57;5.63;;;3.03;;
71821;SDS011;64096;52.548;13.406;2022-12-07T20:38:24;5.25;;;2.88;;
71821;SDS011;64096;52.548;13.406;2022-12-07T20:40:51;6.75;;;3.38;;
71821;SDS011;64096;52.548;13.406;2022-12-07T20:43:17;6.15;;;3.30;;
71821;SDS011;64096;52.548;13.406;2022-12-07T20:45:46;5.13;;;2.83;;
71821;SDS011;64096;52.548;13.406;2022-12-07T20:48:12;6.25;;;3.22;;
71821;SDS011;64096;52.548;13.406;2022-12-07T20:50:38;6.35;;;3.28;;
71821;SDS011;64096;52.548;13.406;2022-12-07T20:53:04;6.63;;;3.20;;
71821;SDS011;64096;52.548;13.406;2022-12-07T20:55:30;5.43;;;2.55;;
71821;SDS011;64096;52.548;13.406;2022-12-07T20:57:57;6.00;;;3.05;;
71821;SDS011;64096;52.548;13.406;2022-12-07T21:00:23;6.15;;;3.13;;
71821;SDS011;64096;52.548;13.406;2022-12-07T21:02:49;5.57;;;2.95;;
71821;SDS011;64096;52.548;13.406;2022-12-07T21:05:15;6.43;;;3.40;;
71821;SDS011;64096;52.548;13.406;2022-12-07T21:07:42;6.32;;;3.55;;
71821;SDS011;64096;52.548;13.406;2022-12-07T21:10:08;5.65;;;2.78;;
71821;SDS011;64096;52.548;13.406;2022-12-07T21:12:35;7.05;;;3.65;;
71821;SDS011;64096;52.548;13.406;2022-12-07T21:15:02;7.93;;;3.60;;
71821;SDS011;64096;52.548;13.406;2022-12-07T21:17:28;6.82;;;3.20;;
71821;SDS011;64096;52.548;13.406;2022-12-07T21:19:54;7.55;;;3.28;;
71821;SDS011;64096;52.548;13.406;2022-12-07T21:22:20;6.57;;;2.78;;
71821;SDS011;64096;52.548;13.406;2022-12-07T21:24:46;6.28;;;3.30;;
71821;SDS011;64096;52.548;13.406;2022-12-07T21:27:12;5.07;;;2.70;;
71821;SDS011;64096;52.548;13.406;2022-12-07T21:29:42;7.97;;;3.45;;
71821;SDS011;64096;52.548;13.406;2022-12-07T21:32:08;6.07;;;3.05;;
71821;SDS011;64096;52.548;13.406;2022-12-07T21:34:34;6.38;;;3.10;;
71821;SDS011;64096;52.548;13.406;2022-12-07T21:37:00;6.75;;;3.10;;
71821;SDS011;64096;52.548;13.406;2022-12-07T21:39:26;6.40;;;2.83;;
71821;SDS011;64096;52.548;13.406;2022-12-07T21:41:53;6.43;;;3.08;;
71821;SDS011;64096;52.548;13.406;2022-12-07T21:44:19;5.43;;;2.85;;
71821;SDS011;64096;52.548;13.406;2022-12-07T21:46:45;6.22;;;3.10;;
71821;SDS011;64096;52.548;13.406;2022-12-07T21:49:11;8.02;;;3.33;;
71821;SDS011;64096;52.548;13.406;2022-12-07T21:51:39;6.13;;;3.40;;
71821;SDS011;64096;52.548;13.406;2022-12-07T21:54:05;5.55;;;3.00;;
71821;SDS011;64096;52.548;13.406;2022-12-07T21:56:33;9.25;;;3.30;;
71821;SDS011;64096;52.548;13.406;2022-12-07T21:59:00;5.88;;;3.10;;
71821;SDS011;64096;52.548;13.406;2022-12-07T22:01:28;6.00;;;3.40;;
71821;SDS011;64096;52.548;13.406;2022-12-07T22:03:55;7.07;;;3.10;;
71821;SDS011;64096;52.548;13.406;2022-12-07T22:06:22;6.80;;;3.28;;
71821;SDS011;64096;52.548;13.406;2022-12-07T22:08:48;5.95;;;3.53;;
71821;SDS011;64096;52.548;13.406;2022-12-07T22:11:14;6.25;;;3.08;;
71821;SDS011;64096;52.548;13.406;2022-12-07T22:13:41;6.90;;;3.92;;